createdAt,value
2023-05-13T00:00:37.734Z,16.59
2023-05-13T00:03:04.217Z,16.55
2023-05-13T00:05:30.816Z,16.52
2023-05-13T00:07:57.515Z,16.48
2023-05-13T00:10:24.593Z,16.44
2023-05-13T00:12:51.364Z,16.36
2023-05-13T00:15:18.408Z,16.33
2023-05-13T00:17:44.966Z,16.31
2023-05-13T00:20:11.764Z,16.28
2023-05-13T00:22:38.123Z,16.25
2023-05-13T00:25:04.731Z,16.22
2023-05-13T00:27:32.756Z,16.19
2023-05-13T00:29:59.881Z,16.18
2023-05-13T00:32:26.736Z,16.16
2023-05-13T00:34:53.275Z,16.10
2023-05-13T00:37:19.690Z,16.09
2023-05-13T00:39:46.069Z,16.06
2023-05-13T00:42:13.630Z,16.04
2023-05-13T00:44:40.810Z,16.02
2023-05-13T00:47:07.521Z,15.98
2023-05-13T00:49:34.228Z,15.93
2023-05-13T00:52:01.633Z,15.87
2023-05-13T00:54:29.692Z,15.83
2023-05-13T00:56:56.926Z,15.81
2023-05-13T00:59:24.741Z,15.79
2023-05-13T01:02:01.023Z,15.79
2023-05-13T01:04:37.835Z,15.77
2023-05-13T01:07:14.617Z,15.78
2023-05-13T01:09:59.604Z,15.79
2023-05-13T01:12:32.770Z,15.78
2023-05-13T01:15:05.480Z,15.73
2023-05-13T01:17:44.791Z,15.68
2023-05-13T01:20:11.602Z,15.68
2023-05-13T01:22:38.074Z,15.67
2023-05-13T01:25:04.653Z,15.68
2023-05-13T01:27:31.053Z,15.66
2023-05-13T01:29:57.554Z,15.64
2023-05-13T01:32:24.453Z,15.61
2023-05-13T01:34:51.864Z,15.58
2023-05-13T01:37:19.330Z,15.48
2023-05-13T01:39:45.848Z,15.45
2023-05-13T01:42:12.323Z,15.40
2023-05-13T01:44:38.957Z,15.41
2023-05-13T01:47:05.517Z,15.36
2023-05-13T01:49:31.947Z,15.34
2023-05-13T01:51:58.355Z,15.29
2023-05-13T01:54:25.796Z,15.30
2023-05-13T01:56:52.838Z,15.26
2023-05-13T01:59:19.287Z,15.20
2023-05-13T02:01:45.796Z,15.23
2023-05-13T02:04:12.465Z,15.21
2023-05-13T02:06:38.816Z,15.17
2023-05-13T02:09:05.222Z,15.12
2023-05-13T02:11:31.644Z,15.08
2023-05-13T02:13:58.029Z,14.99
2023-05-13T02:16:24.435Z,14.97
2023-05-13T02:18:51.363Z,14.95
2023-05-13T02:21:17.867Z,14.89
2023-05-13T02:23:44.303Z,14.88
2023-05-13T02:26:10.668Z,14.84
2023-05-13T02:28:37.113Z,14.84
2023-05-13T02:31:03.495Z,14.83
2023-05-13T02:33:29.900Z,14.80
2023-05-13T02:35:56.327Z,14.77
2023-05-13T02:38:22.716Z,14.78
2023-05-13T02:40:49.170Z,14.73
2023-05-13T02:43:15.707Z,14.71
2023-05-13T02:45:42.082Z,14.67
2023-05-13T02:48:08.789Z,14.64
2023-05-13T02:50:35.299Z,14.64
2023-05-13T02:53:01.764Z,14.63
2023-05-13T02:55:28.343Z,14.63
2023-05-13T02:57:56.661Z,14.63
2023-05-13T03:00:23.299Z,14.62
2023-05-13T03:02:49.967Z,14.65
2023-05-13T03:05:16.472Z,14.61
2023-05-13T03:07:43.318Z,14.62
2023-05-13T03:10:09.897Z,14.64
2023-05-13T03:12:36.391Z,14.60
2023-05-13T03:15:03.572Z,14.60
2023-05-13T03:17:33.471Z,14.62
2023-05-13T03:19:59.900Z,14.63
2023-05-13T03:22:26.737Z,14.61
2023-05-13T03:24:53.176Z,14.62
2023-05-13T03:27:19.617Z,14.59
2023-05-13T03:29:45.976Z,14.59
2023-05-13T03:32:12.361Z,14.56
2023-05-13T03:34:38.911Z,14.48
2023-05-13T03:37:05.465Z,14.46
2023-05-13T03:39:31.880Z,14.49
2023-05-13T03:41:58.251Z,14.47
2023-05-13T03:44:24.609Z,14.44
2023-05-13T03:46:51.150Z,14.43
2023-05-13T03:49:18.961Z,14.42
2023-05-13T03:51:45.498Z,14.39
2023-05-13T03:54:11.990Z,14.38
2023-05-13T03:56:38.365Z,14.40
2023-05-13T03:59:04.774Z,14.37
2023-05-13T04:01:31.182Z,14.38
2023-05-13T04:03:57.628Z,14.33
2023-05-13T04:06:24.057Z,14.36
2023-05-13T04:08:51.285Z,14.34
2023-05-13T04:11:17.647Z,14.33
2023-05-13T04:13:45.933Z,14.32
2023-05-13T04:16:12.449Z,14.34
2023-05-13T04:18:38.994Z,14.34
2023-05-13T04:21:09.409Z,14.36
2023-05-13T04:23:36.072Z,14.36
2023-05-13T04:26:02.444Z,14.38
2023-05-13T04:28:28.928Z,14.39
2023-05-13T04:30:55.390Z,14.37
2023-05-13T04:33:21.775Z,14.37
2023-05-13T04:35:48.294Z,14.37
2023-05-13T04:38:14.661Z,14.38
2023-05-13T04:40:41.070Z,14.39
2023-05-13T04:43:07.492Z,14.39
2023-05-13T04:45:33.920Z,14.39
2023-05-13T04:48:00.366Z,14.39
2023-05-13T04:50:26.840Z,14.38
2023-05-13T04:52:54.910Z,14.39
2023-05-13T04:55:21.634Z,14.41
2023-05-13T04:57:48.389Z,14.42
2023-05-13T05:00:15.442Z,14.42
2023-05-13T05:02:41.917Z,14.46
2023-05-13T05:05:08.725Z,14.49
2023-05-13T05:07:35.216Z,14.52
2023-05-13T05:10:01.655Z,14.54
2023-05-13T05:12:28.025Z,14.55
2023-05-13T05:14:54.435Z,14.55
2023-05-13T05:17:21.054Z,14.57
2023-05-13T05:19:47.571Z,14.62
2023-05-13T05:22:14.010Z,14.63
2023-05-13T05:24:40.480Z,14.66
2023-05-13T05:27:07.049Z,14.59
2023-05-13T05:29:33.454Z,14.64
2023-05-13T05:31:59.946Z,14.69
2023-05-13T05:34:26.394Z,14.75
2023-05-13T05:36:54.927Z,14.78
2023-05-13T05:39:22.077Z,14.80
2023-05-13T05:41:48.483Z,14.83
2023-05-13T05:44:14.958Z,14.82
2023-05-13T05:46:41.391Z,14.87
2023-05-13T05:49:08.277Z,14.90
2023-05-13T05:51:34.665Z,14.94
2023-05-13T05:54:01.528Z,14.94
2023-05-13T05:56:27.905Z,14.96
2023-05-13T05:58:54.272Z,15.01
2023-05-13T06:01:20.685Z,15.06
2023-05-13T06:03:47.138Z,15.09
2023-05-13T06:06:13.781Z,15.13
2023-05-13T06:08:40.135Z,15.15
2023-05-13T06:11:06.570Z,15.18
2023-05-13T06:13:32.932Z,15.21
2023-05-13T06:15:59.433Z,15.23
2023-05-13T06:18:26.337Z,15.22
2023-05-13T06:20:52.793Z,15.22
2023-05-13T06:23:19.231Z,15.27
2023-05-13T06:25:45.752Z,15.28
2023-05-13T06:28:12.253Z,15.27
2023-05-13T06:30:38.771Z,15.22
2023-05-13T06:33:05.413Z,15.19
2023-05-13T06:35:31.905Z,15.24
2023-05-13T06:37:58.335Z,15.27
2023-05-13T06:40:24.955Z,15.28
2023-05-13T06:42:51.332Z,15.27
2023-05-13T06:45:18.434Z,15.32
2023-05-13T06:47:44.860Z,15.36
2023-05-13T06:50:11.425Z,15.38
2023-05-13T06:52:39.433Z,15.44
2023-05-13T06:55:07.311Z,15.47
2023-05-13T06:57:41.850Z,15.49
2023-05-13T07:00:09.450Z,15.53
2023-05-13T07:02:35.839Z,15.58
2023-05-13T07:05:02.221Z,15.63
2023-05-13T07:07:28.616Z,15.61
2023-05-13T07:09:55.049Z,15.63
2023-05-13T07:12:21.454Z,15.66
2023-05-13T07:14:47.844Z,15.67
2023-05-13T07:17:14.299Z,15.71
2023-05-13T07:19:41.274Z,15.72
2023-05-13T07:22:07.649Z,15.79
2023-05-13T07:24:34.080Z,15.82
2023-05-13T07:27:01.329Z,15.83
2023-05-13T07:29:27.810Z,15.89
2023-05-13T07:31:54.236Z,15.89
2023-05-13T07:34:20.616Z,15.86
2023-05-13T07:36:47.156Z,15.94
2023-05-13T07:39:13.557Z,15.99
2023-05-13T07:41:39.930Z,16.06
2023-05-13T07:44:11.559Z,16.14
2023-05-13T07:46:38.039Z,16.20
2023-05-13T07:49:06.837Z,16.29
2023-05-13T07:51:33.233Z,16.39
2023-05-13T07:53:59.608Z,16.45
2023-05-13T07:56:26.009Z,16.55
2023-05-13T07:58:52.495Z,16.72
2023-05-13T08:01:18.928Z,16.87
2023-05-13T08:03:45.563Z,16.94
2023-05-13T08:06:12.098Z,17.18
2023-05-13T08:08:38.512Z,17.41
2023-05-13T08:11:05.262Z,17.61
2023-05-13T08:13:31.706Z,17.84
2023-05-13T08:16:02.006Z,18.03
2023-05-13T08:18:28.758Z,18.09
2023-05-13T08:20:55.369Z,18.22
2023-05-13T08:23:30.686Z,18.34
2023-05-13T08:26:03.451Z,18.73
2023-05-13T08:28:30.014Z,19.04
2023-05-13T08:31:02.473Z,19.11
2023-05-13T08:33:32.380Z,19.31
2023-05-13T08:36:00.297Z,19.51
2023-05-13T08:38:26.697Z,19.58
2023-05-13T08:40:53.255Z,19.70
2023-05-13T08:43:19.869Z,19.94
2023-05-13T08:45:47.663Z,20.22
2023-05-13T08:48:15.762Z,20.50
2023-05-13T08:50:42.765Z,20.58
2023-05-13T08:53:11.094Z,20.59
2023-05-13T08:55:39.667Z,20.80
2023-05-13T08:58:06.561Z,21.07
2023-05-13T09:00:34.636Z,21.12
2023-05-13T09:03:01.739Z,21.31
2023-05-13T09:05:28.509Z,21.40
2023-05-13T09:07:55.535Z,21.44
2023-05-13T09:10:21.978Z,21.60
2023-05-13T09:12:53.371Z,21.72
2023-05-13T09:15:25.303Z,21.88
2023-05-13T09:18:06.779Z,22.13
2023-05-13T09:20:34.169Z,22.18
2023-05-13T09:23:10.502Z,22.55
2023-05-13T09:25:37.850Z,22.88
2023-05-13T09:28:05.871Z,22.88
2023-05-13T09:30:36.778Z,22.83
2023-05-13T09:33:08.255Z,22.90
2023-05-13T09:35:36.729Z,22.89
2023-05-13T09:38:13.101Z,22.93
2023-05-13T09:40:39.610Z,22.97
2023-05-13T09:43:07.681Z,22.89
2023-05-13T09:45:34.440Z,22.83
2023-05-13T09:48:00.908Z,22.93
2023-05-13T09:50:27.565Z,23.06
2023-05-13T09:52:54.007Z,23.09
2023-05-13T09:55:20.538Z,23.30
2023-05-13T09:57:47.438Z,23.54
2023-05-13T10:00:24.829Z,23.49
2023-05-13T10:02:58.627Z,23.33
2023-05-13T10:05:25.155Z,23.08
2023-05-13T10:07:51.679Z,23.18
2023-05-13T10:10:18.217Z,23.32
2023-05-13T10:12:44.800Z,23.28
2023-05-13T10:15:11.433Z,23.15
2023-05-13T10:17:38.086Z,23.09
2023-05-13T10:20:05.198Z,23.09
2023-05-13T10:22:34.577Z,22.88
2023-05-13T10:25:02.003Z,22.86
2023-05-13T10:27:30.905Z,22.83
2023-05-13T10:29:59.166Z,22.97
2023-05-13T10:32:30.796Z,22.99
2023-05-13T10:35:02.215Z,22.99
2023-05-13T10:37:44.097Z,22.95
2023-05-13T10:40:45.036Z,22.82
2023-05-13T10:43:19.115Z,22.79
2023-05-13T10:45:47.612Z,22.88
2023-05-13T10:48:15.657Z,23.05
2023-05-13T10:50:56.464Z,23.04
2023-05-13T10:53:30.000Z,22.93
2023-05-13T10:55:59.938Z,22.93
2023-05-13T10:58:30.961Z,22.91
2023-05-13T11:01:17.769Z,22.86
2023-05-13T11:03:52.936Z,22.76
2023-05-13T11:06:24.903Z,22.66
2023-05-13T11:08:55.084Z,22.90
2023-05-13T11:11:22.384Z,22.85
2023-05-13T11:14:10.572Z,23.04
2023-05-13T11:16:37.418Z,23.06
2023-05-13T11:19:04.936Z,23.03
2023-05-13T11:21:33.331Z,23.06
2023-05-13T11:24:04.248Z,23.05
2023-05-13T11:26:49.048Z,23.04
2023-05-13T11:29:16.388Z,23.12
2023-05-13T11:31:52.921Z,23.13
2023-05-13T11:34:20.429Z,23.29
2023-05-13T11:36:52.702Z,23.36
2023-05-13T11:39:20.452Z,23.36
2023-05-13T11:41:50.550Z,23.49
2023-05-13T11:44:21.843Z,23.68
2023-05-13T11:46:51.171Z,23.67
2023-05-13T11:49:42.285Z,23.66
2023-05-13T11:52:13.566Z,23.53
2023-05-13T11:54:51.145Z,23.34
2023-05-13T11:57:17.460Z,23.43
2023-05-13T11:59:58.486Z,23.53
2023-05-13T12:02:37.295Z,23.76
2023-05-13T12:05:06.027Z,23.73
2023-05-13T12:07:33.685Z,23.89
2023-05-13T12:10:01.636Z,23.98
2023-05-13T12:12:29.564Z,24.18
2023-05-13T12:14:58.596Z,24.36
2023-05-13T12:17:25.539Z,24.52
2023-05-13T12:20:17.640Z,24.54
2023-05-13T12:22:43.965Z,24.36
2023-05-13T12:25:35.654Z,24.38
2023-05-13T12:28:09.655Z,24.47
2023-05-13T12:30:37.339Z,24.56
2023-05-13T12:33:06.974Z,24.53
2023-05-13T12:35:33.668Z,24.52
2023-05-13T12:38:06.315Z,24.57
2023-05-13T12:40:32.916Z,24.64
2023-05-13T12:43:00.381Z,24.80
2023-05-13T12:45:31.263Z,24.88
2023-05-13T12:47:58.085Z,25.04
2023-05-13T12:50:24.972Z,25.05
2023-05-13T12:52:52.350Z,25.12
2023-05-13T12:55:18.795Z,25.07
2023-05-13T12:58:00.949Z,25.33
2023-05-13T13:00:27.351Z,25.37
2023-05-13T13:02:54.229Z,25.42
2023-05-13T13:05:21.933Z,25.50
2023-05-13T13:07:48.662Z,25.47
2023-05-13T13:10:15.261Z,25.40
2023-05-13T13:12:42.273Z,25.42
2023-05-13T13:15:10.278Z,25.37
2023-05-13T13:17:36.733Z,25.53
2023-05-13T13:20:04.834Z,25.69
2023-05-13T13:22:31.691Z,25.74
2023-05-13T13:24:58.164Z,25.82
2023-05-13T13:27:24.639Z,26.01
2023-05-13T13:29:51.078Z,26.21
2023-05-13T13:32:17.699Z,26.40
2023-05-13T13:34:44.241Z,26.54
2023-05-13T13:37:10.877Z,26.54
2023-05-13T13:39:37.306Z,26.59
2023-05-13T13:42:04.660Z,26.51
2023-05-13T13:44:31.508Z,26.42
2023-05-13T13:46:58.872Z,26.35
2023-05-13T13:49:25.517Z,26.36
2023-05-13T13:51:52.994Z,26.31
2023-05-13T13:54:19.914Z,26.21
2023-05-13T13:56:46.380Z,26.02
2023-05-13T13:59:12.737Z,25.90
2023-05-13T14:01:40.099Z,25.91
2023-05-13T14:04:11.537Z,25.86
2023-05-13T14:06:38.282Z,25.98
2023-05-13T14:09:05.765Z,25.97
2023-05-13T14:11:32.645Z,25.86
2023-05-13T14:13:59.077Z,25.82
2023-05-13T14:16:25.673Z,25.75
2023-05-13T14:18:52.247Z,25.80
2023-05-13T14:21:18.773Z,25.93
2023-05-13T14:23:45.152Z,25.87
2023-05-13T14:26:13.187Z,25.76
2023-05-13T14:28:39.619Z,25.87
2023-05-13T14:31:06.001Z,25.93
2023-05-13T14:33:32.410Z,25.84
2023-05-13T14:35:58.833Z,25.78
2023-05-13T14:38:27.113Z,25.37
2023-05-13T14:40:55.743Z,25.40
2023-05-13T14:43:23.133Z,25.42
2023-05-13T14:45:49.561Z,25.47
2023-05-13T14:48:16.464Z,25.59
2023-05-13T14:50:45.175Z,25.60
2023-05-13T14:53:11.778Z,25.72
2023-05-13T14:55:38.375Z,25.75
2023-05-13T14:58:05.105Z,25.83
2023-05-13T15:00:31.909Z,25.88
2023-05-13T15:02:58.526Z,25.83
2023-05-13T15:05:26.506Z,25.72
2023-05-13T15:07:52.941Z,25.44
2023-05-13T15:10:19.395Z,25.16
2023-05-13T15:12:46.150Z,25.12
2023-05-13T15:15:12.530Z,24.94
2023-05-13T15:17:39.012Z,24.85
2023-05-13T15:20:06.006Z,24.82
2023-05-13T15:22:34.096Z,24.75
2023-05-13T15:25:00.765Z,24.83
2023-05-13T15:27:28.172Z,24.86
2023-05-13T15:29:54.991Z,24.85
2023-05-13T15:32:21.400Z,24.75
2023-05-13T15:34:47.809Z,24.60
2023-05-13T15:37:14.170Z,24.64
2023-05-13T15:39:40.925Z,24.63
2023-05-13T15:42:07.420Z,24.66
2023-05-13T15:44:33.843Z,24.49
2023-05-13T15:47:00.533Z,24.36
2023-05-13T15:49:27.312Z,24.34
2023-05-13T15:51:55.581Z,24.34
2023-05-13T15:54:21.974Z,24.37
2023-05-13T15:56:48.400Z,24.41
2023-05-13T15:59:14.840Z,24.32
2023-05-13T16:01:41.721Z,24.30
2023-05-13T16:04:08.534Z,24.42
2023-05-13T16:06:34.967Z,24.43
2023-05-13T16:09:01.993Z,24.51
2023-05-13T16:11:28.711Z,24.42
2023-05-13T16:13:55.083Z,24.32
2023-05-13T16:16:21.801Z,24.09
2023-05-13T16:18:48.761Z,24.08
2023-05-13T16:21:15.454Z,23.99
2023-05-13T16:23:41.847Z,23.89
2023-05-13T16:26:08.261Z,23.90
2023-05-13T16:28:34.816Z,23.82
2023-05-13T16:31:01.386Z,23.76
2023-05-13T16:33:28.050Z,23.73
2023-05-13T16:35:54.436Z,23.79
2023-05-13T16:38:20.781Z,23.77
2023-05-13T16:40:47.287Z,23.57
2023-05-13T16:43:13.883Z,23.57
2023-05-13T16:45:40.878Z,23.49
2023-05-13T16:48:07.332Z,23.39
2023-05-13T16:50:33.901Z,23.33
2023-05-13T16:53:00.443Z,23.23
2023-05-13T16:55:26.856Z,23.19
2023-05-13T16:57:55.890Z,23.25
2023-05-13T17:00:22.509Z,23.17
2023-05-13T17:02:49.294Z,22.89
2023-05-13T17:05:15.907Z,22.84
2023-05-13T17:07:42.280Z,22.81
2023-05-13T17:10:09.167Z,22.72
2023-05-13T17:12:35.536Z,22.64
2023-05-13T17:15:03.528Z,22.46
2023-05-13T17:17:30.583Z,22.50
2023-05-13T17:19:57.658Z,22.49
2023-05-13T17:22:24.163Z,22.55
2023-05-13T17:24:50.607Z,22.57
2023-05-13T17:27:17.032Z,22.36
2023-05-13T17:29:43.398Z,22.18
2023-05-13T17:32:09.755Z,21.94
2023-05-13T17:34:36.180Z,21.92
2023-05-13T17:37:02.698Z,21.92
2023-05-13T17:39:29.041Z,21.80
2023-05-13T17:41:55.511Z,21.70
2023-05-13T17:44:23.771Z,21.67
2023-05-13T17:46:50.222Z,21.68
2023-05-13T17:49:16.822Z,21.49
2023-05-13T17:51:43.356Z,21.53
2023-05-13T17:54:11.325Z,21.53
2023-05-13T17:56:37.755Z,21.39
2023-05-13T17:59:04.161Z,21.25
2023-05-13T18:01:30.528Z,21.22
2023-05-13T18:03:56.964Z,21.11
2023-05-13T18:06:23.387Z,20.96
2023-05-13T18:08:50.201Z,20.89
2023-05-13T18:11:16.601Z,20.82
2023-05-13T18:13:43.048Z,20.66
2023-05-13T18:16:10.894Z,20.51
2023-05-13T18:18:37.387Z,20.45
2023-05-13T18:21:03.927Z,20.39
2023-05-13T18:23:30.551Z,20.35
2023-05-13T18:25:56.926Z,20.34
2023-05-13T18:28:23.505Z,20.21
2023-05-13T18:30:50.039Z,20.11
2023-05-13T18:33:16.488Z,20.03
2023-05-13T18:35:44.063Z,19.93
2023-05-13T18:38:11.824Z,19.88
2023-05-13T18:40:38.293Z,19.85
2023-05-13T18:43:04.660Z,19.77
2023-05-13T18:45:31.227Z,19.74
2023-05-13T18:47:57.679Z,19.75
2023-05-13T18:50:25.093Z,19.70
2023-05-13T18:52:51.516Z,19.59
2023-05-13T18:55:18.004Z,19.46
2023-05-13T18:57:44.403Z,19.44
2023-05-13T19:00:11.142Z,19.37
2023-05-13T19:02:37.737Z,19.39
2023-05-13T19:05:04.557Z,19.35
2023-05-13T19:07:30.955Z,19.34
2023-05-13T19:09:57.348Z,19.31
2023-05-13T19:12:23.750Z,19.19
2023-05-13T19:14:50.135Z,19.09
2023-05-13T19:17:16.649Z,19.01
2023-05-13T19:19:43.152Z,18.93
2023-05-13T19:22:09.577Z,18.79
2023-05-13T19:24:36.085Z,18.67
2023-05-13T19:27:02.733Z,18.64
2023-05-13T19:29:29.193Z,18.48
2023-05-13T19:31:55.554Z,18.43
2023-05-13T19:34:22.014Z,18.44
2023-05-13T19:36:48.404Z,18.46
2023-05-13T19:39:14.947Z,18.46
2023-05-13T19:41:41.603Z,18.47
2023-05-13T19:44:08.096Z,18.43
2023-05-13T19:46:34.556Z,18.42
2023-05-13T19:49:01.022Z,18.41
2023-05-13T19:51:27.532Z,18.44
2023-05-13T19:53:53.902Z,18.45
2023-05-13T19:56:21.018Z,18.46
2023-05-13T19:58:47.402Z,18.43
2023-05-13T20:01:14.799Z,18.40
2023-05-13T20:03:41.690Z,18.39
2023-05-13T20:06:08.170Z,18.31
2023-05-13T20:08:35.663Z,18.34
2023-05-13T20:11:02.085Z,18.28
2023-05-13T20:13:28.485Z,18.23
2023-05-13T20:15:54.873Z,18.20
2023-05-13T20:18:21.323Z,18.12
2023-05-13T20:20:48.042Z,18.07
2023-05-13T20:23:14.690Z,18.00
2023-05-13T20:25:41.429Z,17.92
2023-05-13T20:28:07.922Z,17.97
2023-05-13T20:30:34.396Z,17.87
2023-05-13T20:33:01.045Z,17.85
2023-05-13T20:35:27.463Z,17.85
2023-05-13T20:37:54.247Z,17.80
2023-05-13T20:40:20.695Z,17.71
2023-05-13T20:42:47.804Z,17.66
2023-05-13T20:45:14.364Z,17.70
2023-05-13T20:47:40.812Z,17.64
2023-05-13T20:50:07.857Z,17.59
2023-05-13T20:52:34.396Z,17.55
2023-05-13T20:55:01.106Z,17.58
2023-05-13T20:57:27.653Z,17.51
2023-05-13T20:59:54.323Z,17.49
2023-05-13T21:02:21.068Z,17.47
2023-05-13T21:04:47.595Z,17.47
2023-05-13T21:07:14.039Z,17.45
2023-05-13T21:09:40.525Z,17.44
2023-05-13T21:12:07.039Z,17.34
2023-05-13T21:14:33.473Z,17.30
2023-05-13T21:17:03.036Z,17.29
2023-05-13T21:19:30.403Z,17.20
2023-05-13T21:21:57.341Z,17.16
2023-05-13T21:24:23.746Z,17.11
2023-05-13T21:26:50.670Z,17.09
2023-05-13T21:29:18.887Z,17.08
2023-05-13T21:31:46.052Z,17.02
2023-05-13T21:34:12.660Z,17.02
2023-05-13T21:36:39.264Z,16.92
2023-05-13T21:39:06.759Z,16.88
2023-05-13T21:41:33.154Z,16.82
2023-05-13T21:43:59.496Z,16.74
2023-05-13T21:46:25.860Z,16.67
2023-05-13T21:48:52.299Z,16.66
2023-05-13T21:51:18.739Z,16.65
2023-05-13T21:53:45.233Z,16.62
2023-05-13T21:56:11.671Z,16.51
2023-05-13T21:58:38.083Z,16.48
2023-05-13T22:01:04.636Z,16.44
2023-05-13T22:03:31.151Z,16.43
2023-05-13T22:05:57.648Z,16.36
2023-05-13T22:08:24.134Z,16.29
2023-05-13T22:10:50.952Z,16.23
2023-05-13T22:13:17.410Z,16.16
2023-05-13T22:15:44.006Z,16.19
2023-05-13T22:18:10.635Z,16.18
2023-05-13T22:20:37.131Z,16.07
2023-05-13T22:23:03.539Z,16.05
2023-05-13T22:25:29.950Z,16.06
2023-05-13T22:27:56.321Z,16.04
2023-05-13T22:30:22.927Z,15.97
2023-05-13T22:32:50.723Z,15.93
2023-05-13T22:35:17.274Z,15.90
2023-05-13T22:37:43.648Z,15.83
2023-05-13T22:40:11.043Z,15.80
2023-05-13T22:42:37.398Z,15.73
2023-05-13T22:45:04.449Z,15.68
2023-05-13T22:47:30.869Z,15.67
2023-05-13T22:49:57.259Z,15.64
2023-05-13T22:52:23.690Z,15.61
2023-05-13T22:54:50.199Z,15.59
2023-05-13T22:57:16.768Z,15.56
2023-05-13T22:59:43.200Z,15.54
2023-05-13T23:02:09.738Z,15.50
2023-05-13T23:04:36.363Z,15.49
2023-05-13T23:07:02.841Z,15.50
2023-05-13T23:09:29.201Z,15.50
2023-05-13T23:11:55.606Z,15.53
2023-05-13T23:14:22.027Z,15.52
2023-05-13T23:16:48.725Z,15.49
2023-05-13T23:19:15.187Z,15.50
2023-05-13T23:21:41.583Z,15.52
2023-05-13T23:24:08.266Z,15.56
2023-05-13T23:26:34.700Z,15.60
2023-05-13T23:29:01.062Z,15.63
2023-05-13T23:31:27.510Z,15.61
2023-05-13T23:33:53.955Z,15.61
2023-05-13T23:36:20.371Z,15.66
2023-05-13T23:38:46.810Z,15.65
2023-05-13T23:41:13.243Z,15.62
2023-05-13T23:43:39.623Z,15.55
2023-05-13T23:46:05.990Z,15.46
2023-05-13T23:48:32.481Z,15.46
2023-05-13T23:50:58.885Z,15.45
2023-05-13T23:53:25.499Z,15.41
2023-05-13T23:55:51.874Z,15.43
2023-05-13T23:58:18.323Z,15.44
